Time;durP1;ratioP1;P1;durP2;ratioP2;P2;SDS_P1;SDS_P2;PMS_P1;PMS_P2;Temp;Humidity;BMP_temperature;BMP_pressure;BME280_temperature;BME280_humidity;BME280_pressure;Samples;Min_cycle;Max_cycle;Signal;HPM_P1;HPM_P2
2021/12/23 00:01:55;;;;;;;104.20;46.35;;;;;;;;;;5052047;28;20032;-78
2021/12/23 00:04:21;;;;;;;118.32;52.22;;;;;;;;;;5067163;28;20036;-78
2021/12/23 00:06:47;;;;;;;103.22;47.90;;;;;;;;;;5071819;28;20025;-78
2021/12/23 00:09:13;;;;;;;98.32;46.22;;;;;;;;;;5070253;28;20028;-78
2021/12/23 00:11:39;;;;;;;94.80;43.28;;;;;;;;;;5051840;28;20044;-78
2021/12/23 00:14:08;;;;;;;109.20;49.10;;;;;;;;;;5080845;28;20047;-78
2021/12/23 00:19:58;;;;;;;89.90;41.03;;;;;;;;;;5068248;28;20063;-78
2021/12/23 00:24:48;;;;;;;86.38;40.53;;;;;;;;;;5071081;28;20145;-78
2021/12/23 00:27:15;;;;;;;79.43;40.22;;;;;;;;;;5071419;28;20025;-78
2021/12/23 00:29:41;;;;;;;92.53;44.88;;;;;;;;;;5071133;28;20037;-78
2021/12/23 00:32:08;;;;;;;90.90;43.22;;;;;;;;;;5071284;28;20036;-78
2021/12/23 00:34:35;;;;;;;86.70;42.85;;;;;;;;;;5071298;28;20120;-78
2021/12/23 00:37:02;;;;;;;83.65;40.88;;;;;;;;;;5070884;28;20028;-78
2021/12/23 00:39:30;;;;;;;86.40;41.35;;;;;;;;;;5071048;28;20041;-78
2021/12/23 00:42:05;;;;;;;79.90;38.42;;;;;;;;;;5070186;28;20063;-78
2021/12/23 00:44:31;;;;;;;78.93;38.88;;;;;;;;;;5069889;28;20026;-78
2021/12/23 00:46:57;;;;;;;81.72;40.50;;;;;;;;;;5069025;28;20029;-78
2021/12/23 00:49:23;;;;;;;81.07;38.90;;;;;;;;;;5050809;28;20547;-78
2021/12/23 00:51:49;;;;;;;90.68;46.10;;;;;;;;;;5051966;28;20032;-77
2021/12/23 00:54:15;;;;;;;87.70;44.75;;;;;;;;;;5050501;28;20029;-78
2021/12/23 00:56:47;;;;;;;94.70;46.17;;;;;;;;;;5050841;28;20907;-78
2021/12/23 00:59:14;;;;;;;100.20;49.38;;;;;;;;;;5050214;28;20036;-78
2021/12/23 01:01:40;;;;;;;83.72;40.10;;;;;;;;;;5050602;28;20029;-77
2021/12/23 01:04:06;;;;;;;91.20;43.38;;;;;;;;;;5052806;28;20040;-78
2021/12/23 01:06:32;;;;;;;83.38;38.78;;;;;;;;;;5063739;28;20021;-78
2021/12/23 01:08:58;;;;;;;92.88;42.25;;;;;;;;;;5050909;28;20044;-77
2021/12/23 01:11:25;;;;;;;90.93;41.45;;;;;;;;;;5070223;28;20430;-78
2021/12/23 01:14:13;;;;;;;76.45;37.40;;;;;;;;;;5070336;28;20078;-78
2021/12/23 01:17:00;;;;;;;76.78;38.80;;;;;;;;;;5055969;28;20024;-78
2021/12/23 01:19:27;;;;;;;71.80;36.65;;;;;;;;;;5069742;28;20029;-78
2021/12/23 01:21:53;;;;;;;67.68;33.90;;;;;;;;;;5069921;28;20039;-78
2021/12/23 01:24:20;;;;;;;72.10;34.97;;;;;;;;;;5070176;28;20071;-78
2021/12/23 01:26:46;;;;;;;88.20;42.85;;;;;;;;;;5070252;28;20202;-78
2021/12/23 01:29:12;;;;;;;87.57;40.50;;;;;;;;;;5069920;28;20032;-77
2021/12/23 01:31:38;;;;;;;88.78;43.47;;;;;;;;;;5060612;28;20029;-78
2021/12/23 01:34:05;;;;;;;90.25;48.22;;;;;;;;;;5050227;28;20029;-78
2021/12/23 01:36:31;;;;;;;99.75;45.95;;;;;;;;;;5064246;28;20155;-78
2021/12/23 01:38:57;;;;;;;102.07;48.25;;;;;;;;;;5070294;28;20060;-78
2021/12/23 01:41:24;;;;;;;97.57;44.25;;;;;;;;;;5056093;28;20033;-78
2021/12/23 01:43:50;;;;;;;126.93;55.42;;;;;;;;;;5049833;28;20631;-78
2021/12/23 01:46:17;;;;;;;110.00;47.40;;;;;;;;;;5065217;28;20107;-78
2021/12/23 01:48:43;;;;;;;89.82;42.83;;;;;;;;;;5070045;28;20032;-78
2021/12/23 01:51:09;;;;;;;87.07;40.67;;;;;;;;;;5068057;28;20067;-78
2021/12/23 01:53:35;;;;;;;80.07;39.78;;;;;;;;;;5069702;28;20040;-78
2021/12/23 01:56:01;;;;;;;85.00;38.92;;;;;;;;;;5069196;28;20118;-78
2021/12/23 01:58:27;;;;;;;70.68;36.58;;;;;;;;;;5069640;28;20029;-78
2021/12/23 02:00:54;;;;;;;68.03;35.15;;;;;;;;;;5069033;28;20059;-78
2021/12/23 02:03:20;;;;;;;70.07;33.85;;;;;;;;;;5069442;28;20033;-78
2021/12/23 02:05:46;;;;;;;73.90;37.50;;;;;;;;;;5068469;28;20131;-78
2021/12/23 02:08:12;;;;;;;84.97;41.67;;;;;;;;;;5069688;28;20732;-78
2021/12/23 02:10:40;;;;;;;82.90;40.10;;;;;;;;;;5066297;28;20028;-78
2021/12/23 02:13:06;;;;;;;64.35;30.83;;;;;;;;;;5049437;28;20471;-78
2021/12/23 02:15:32;;;;;;;63.83;32.42;;;;;;;;;;5059357;28;20035;-77
2021/12/23 02:17:58;;;;;;;68.70;34.47;;;;;;;;;;5065879;28;20128;-78
2021/12/23 02:20:26;;;;;;;66.45;32.33;;;;;;;;;;5066104;28;20032;-78
2021/12/23 02:22:52;;;;;;;71.45;33.95;;;;;;;;;;5052378;28;20061;-78
2021/12/23 02:25:18;;;;;;;61.13;30.90;;;;;;;;;;5049094;28;20226;-78
2021/12/23 02:27:45;;;;;;;66.38;31.33;;;;;;;;;;5049854;28;20025;-77
2021/12/23 02:30:17;;;;;;;63.83;31.05;;;;;;;;;;5061857;28;20095;-78
2021/12/23 02:32:44;;;;;;;55.50;25.42;;;;;;;;;;5059190;28;20032;-78
2021/12/23 02:35:11;;;;;;;54.30;27.70;;;;;;;;;;5055414;28;20111;-78
2021/12/23 02:37:38;;;;;;;59.90;27.67;;;;;;;;;;5069580;28;20032;-78
2021/12/23 02:40:04;;;;;;;61.90;27.50;;;;;;;;;;5068830;28;20039;-78
2021/12/23 02:42:30;;;;;;;50.70;25.77;;;;;;;;;;5066569;28;20136;-79
2021/12/23 02:44:58;;;;;;;46.70;22.65;;;;;;;;;;5061823;28;20029;-78
2021/12/23 02:47:24;;;;;;;52.50;25.05;;;;;;;;;;5068404;28;20150;-78
2021/12/23 02:49:50;;;;;;;59.78;28.98;;;;;;;;;;5061057;28;20064;-78
2021/12/23 02:52:17;;;;;;;60.22;29.67;;;;;;;;;;5069072;28;20036;-78
2021/12/23 02:54:43;;;;;;;56.00;27.00;;;;;;;;;;5062125;28;20032;-78
2021/12/23 02:57:09;;;;;;;58.47;26.70;;;;;;;;;;5069265;28;20036;-78
2021/12/23 02:59:36;;;;;;;57.50;28.15;;;;;;;;;;5069170;28;20458;-78
2021/12/23 03:02:02;;;;;;;54.45;25.92;;;;;;;;;;5052678;28;20110;-78
2021/12/23 03:04:28;;;;;;;53.55;26.23;;;;;;;;;;5062787;28;20032;-78
2021/12/23 03:06:57;;;;;;;51.45;25.15;;;;;;;;;;5067140;28;20064;-78
2021/12/23 03:09:23;;;;;;;52.75;25.98;;;;;;;;;;5048975;28;20059;-78
2021/12/23 03:11:49;;;;;;;55.97;26.10;;;;;;;;;;5048695;28;20084;-78
2021/12/23 03:14:15;;;;;;;53.20;25.08;;;;;;;;;;5063919;28;20431;-77
2021/12/23 03:16:41;;;;;;;44.42;23.50;;;;;;;;;;5068977;28;20037;-78
2021/12/23 03:19:07;;;;;;;51.83;25.45;;;;;;;;;;5068067;28;20024;-78
2021/12/23 03:21:34;;;;;;;44.53;22.15;;;;;;;;;;5067316;28;20037;-79
2021/12/23 03:24:01;;;;;;;46.45;23.13;;;;;;;;;;5065151;28;20095;-77
2021/12/23 03:26:27;;;;;;;42.47;22.23;;;;;;;;;;5070282;28;20033;-78
2021/12/23 03:28:53;;;;;;;44.13;23.40;;;;;;;;;;5058201;28;20025;-78
2021/12/23 03:31:19;;;;;;;44.67;22.30;;;;;;;;;;5052717;28;20047;-78
2021/12/23 03:33:45;;;;;;;45.45;21.45;;;;;;;;;;5050163;28;20036;-78
2021/12/23 03:36:11;;;;;;;41.20;21.35;;;;;;;;;;5071036;28;20893;-78
2021/12/23 03:38:37;;;;;;;45.42;22.55;;;;;;;;;;5072255;28;20094;-77
2021/12/23 03:41:03;;;;;;;45.42;22.17;;;;;;;;;;5072385;28;20116;-78
2021/12/23 03:43:29;;;;;;;44.42;22.15;;;;;;;;;;5071704;28;20060;-78
2021/12/23 03:45:55;;;;;;;48.47;25.02;;;;;;;;;;5071741;28;20032;-77
2021/12/23 03:48:22;;;;;;;43.67;21.85;;;;;;;;;;5066138;28;20033;-78
2021/12/23 03:50:48;;;;;;;48.08;23.42;;;;;;;;;;5051832;28;20033;-78
2021/12/23 03:53:15;;;;;;;46.88;22.20;;;;;;;;;;5051459;28;20040;-79
2021/12/23 03:55:41;;;;;;;44.17;23.25;;;;;;;;;;5051982;28;20037;-78
2021/12/23 03:58:07;;;;;;;47.88;25.63;;;;;;;;;;5051603;28;20062;-78
2021/12/23 04:00:34;;;;;;;41.25;21.13;;;;;;;;;;5071378;28;20111;-78
2021/12/23 04:03:00;;;;;;;46.83;23.10;;;;;;;;;;5071552;28;20032;-78
2021/12/23 04:05:26;;;;;;;48.60;21.70;;;;;;;;;;5068319;28;20033;-78
2021/12/23 04:07:52;;;;;;;35.60;18.80;;;;;;;;;;5071959;28;20037;-78
2021/12/23 04:10:21;;;;;;;37.97;18.23;;;;;;;;;;5070711;28;20029;-79
2021/12/23 04:12:47;;;;;;;32.13;15.85;;;;;;;;;;5051381;28;20610;-78
2021/12/23 04:15:13;;;;;;;37.08;19.13;;;;;;;;;;5063287;28;20036;-78
2021/12/23 04:17:40;;;;;;;38.85;17.98;;;;;;;;;;5071582;28;20115;-78
2021/12/23 04:20:16;;;;;;;40.28;18.60;;;;;;;;;;5060954;28;20037;-77
2021/12/23 04:22:42;;;;;;;36.53;18.45;;;;;;;;;;5051838;28;20024;-78
2021/12/23 04:25:09;;;;;;;37.10;18.88;;;;;;;;;;5056766;28;20041;-77
2021/12/23 04:27:35;;;;;;;35.78;18.33;;;;;;;;;;5061149;28;20020;-78
2021/12/23 04:30:01;;;;;;;40.80;18.65;;;;;;;;;;5065011;28;20037;-78
2021/12/23 04:32:27;;;;;;;37.25;18.35;;;;;;;;;;5051347;28;20063;-79
2021/12/23 04:34:53;;;;;;;34.60;16.20;;;;;;;;;;5054088;28;20765;-78
2021/12/23 04:37:19;;;;;;;36.03;17.10;;;;;;;;;;5069097;28;20043;-78
2021/12/23 04:39:45;;;;;;;35.03;17.33;;;;;;;;;;5070528;28;20037;-77
2021/12/23 04:42:11;;;;;;;37.55;19.17;;;;;;;;;;5071192;28;20443;-78
2021/12/23 04:44:37;;;;;;;37.45;18.00;;;;;;;;;;5070696;28;20024;-78
2021/12/23 04:47:03;;;;;;;39.13;18.27;;;;;;;;;;5070219;28;20064;-78
2021/12/23 04:49:29;;;;;;;37.20;19.40;;;;;;;;;;5070453;28;20037;-78
2021/12/23 04:51:55;;;;;;;34.45;18.45;;;;;;;;;;5070435;28;20028;-78
2021/12/23 04:54:21;;;;;;;35.63;17.77;;;;;;;;;;5070261;28;20122;-78
2021/12/23 04:56:47;;;;;;;42.47;21.73;;;;;;;;;;5070192;28;20050;-78
2021/12/23 04:59:13;;;;;;;43.28;19.38;;;;;;;;;;5070707;28;20035;-79
2021/12/23 05:01:39;;;;;;;37.83;19.10;;;;;;;;;;5060174;28;20037;-77
2021/12/23 05:04:05;;;;;;;32.58;16.85;;;;;;;;;;5050223;28;20029;-77
2021/12/23 05:06:31;;;;;;;34.22;17.63;;;;;;;;;;5056838;28;20204;-78
2021/12/23 05:08:57;;;;;;;41.22;19.38;;;;;;;;;;5050271;28;20459;-78
2021/12/23 05:11:23;;;;;;;36.90;18.20;;;;;;;;;;5050231;28;20051;-78
2021/12/23 05:13:49;;;;;;;38.58;18.45;;;;;;;;;;5050380;28;20036;-78
2021/12/23 05:16:16;;;;;;;42.35;20.58;;;;;;;;;;5070288;28;20166;-78
2021/12/23 05:18:42;;;;;;;38.33;20.25;;;;;;;;;;5070122;28;20080;-78
2021/12/23 05:21:08;;;;;;;37.67;19.58;;;;;;;;;;5068837;28;20036;-78
2021/12/23 05:23:34;;;;;;;42.45;21.08;;;;;;;;;;5070096;28;20731;-78
2021/12/23 05:26:00;;;;;;;39.70;20.77;;;;;;;;;;5054256;28;20112;-78
2021/12/23 05:28:26;;;;;;;41.67;19.70;;;;;;;;;;5058108;28;20024;-78
2021/12/23 05:30:52;;;;;;;39.33;18.88;;;;;;;;;;5069838;28;20116;-79
2021/12/23 05:33:18;;;;;;;37.10;19.25;;;;;;;;;;5062790;28;20445;-77
2021/12/23 05:35:44;;;;;;;36.72;17.95;;;;;;;;;;5049882;28;20041;-78
2021/12/23 05:38:10;;;;;;;33.30;17.13;;;;;;;;;;5055752;28;20078;-78
2021/12/23 05:40:36;;;;;;;45.42;21.05;;;;;;;;;;5050443;28;20033;-78
2021/12/23 05:43:03;;;;;;;51.70;25.58;;;;;;;;;;5050598;28;20051;-78
2021/12/23 05:45:30;;;;;;;42.75;22.13;;;;;;;;;;5069404;28;20028;-78
2021/12/23 05:47:56;;;;;;;39.97;20.17;;;;;;;;;;5069365;28;20028;-78
2021/12/23 05:50:23;;;;;;;43.47;24.27;;;;;;;;;;5052703;28;20521;-78
2021/12/23 05:52:50;;;;;;;41.35;21.70;;;;;;;;;;5049962;28;20078;-78
2021/12/23 05:55:16;;;;;;;46.55;25.33;;;;;;;;;;5049464;28;20528;-78
2021/12/23 05:57:42;;;;;;;51.80;25.95;;;;;;;;;;5049898;28;20494;-78
2021/12/23 06:00:10;;;;;;;52.58;28.20;;;;;;;;;;5051944;28;20081;-78
2021/12/23 06:02:37;;;;;;;50.60;27.23;;;;;;;;;;5062942;28;20037;-78
2021/12/23 06:05:03;;;;;;;58.38;33.25;;;;;;;;;;5054696;28;20039;-77
2021/12/23 06:07:29;;;;;;;60.55;36.50;;;;;;;;;;5061310;28;20036;-78
2021/12/23 06:09:55;;;;;;;50.30;28.63;;;;;;;;;;5069107;28;20029;-78
2021/12/23 06:12:21;;;;;;;49.70;27.27;;;;;;;;;;5062508;28;20141;-78
2021/12/23 06:14:47;;;;;;;50.95;26.67;;;;;;;;;;5062969;28;20562;-77
2021/12/23 06:17:13;;;;;;;46.78;26.90;;;;;;;;;;5050851;28;20060;-78
2021/12/23 06:19:39;;;;;;;46.70;25.48;;;;;;;;;;5060237;28;20091;-79
2021/12/23 06:22:06;;;;;;;46.50;23.20;;;;;;;;;;5060756;28;20033;-78
2021/12/23 06:24:32;;;;;;;51.08;23.85;;;;;;;;;;5066826;28;20039;-78
2021/12/23 06:26:58;;;;;;;45.05;22.00;;;;;;;;;;5068924;28;20493;-78
2021/12/23 06:29:24;;;;;;;42.92;21.77;;;;;;;;;;5064237;28;20044;-78
2021/12/23 06:31:50;;;;;;;54.97;27.20;;;;;;;;;;5065382;28;20468;-78
2021/12/23 06:34:16;;;;;;;50.90;24.90;;;;;;;;;;5063788;28;20060;-77
2021/12/23 06:36:44;;;;;;;49.28;24.02;;;;;;;;;;5069233;28;20058;-78
2021/12/23 06:39:10;;;;;;;55.08;29.52;;;;;;;;;;5079654;28;20047;-78
2021/12/23 06:41:36;;;;;;;50.00;27.30;;;;;;;;;;5077258;28;20116;-78
2021/12/23 06:44:02;;;;;;;55.70;29.30;;;;;;;;;;5077460;28;20032;-79
2021/12/23 06:46:28;;;;;;;52.33;29.30;;;;;;;;;;5081024;28;20708;-78
2021/12/23 06:48:54;;;;;;;51.53;29.17;;;;;;;;;;5055452;28;20029;-78
2021/12/23 06:51:20;;;;;;;51.35;27.48;;;;;;;;;;5062744;28;20032;-79
2021/12/23 06:53:47;;;;;;;51.50;29.60;;;;;;;;;;5059383;28;20074;-78
2021/12/23 06:56:16;;;;;;;49.55;29.50;;;;;;;;;;5066948;28;20043;-78
2021/12/23 06:58:44;;;;;;;51.40;31.67;;;;;;;;;;5069508;28;20067;-77
2021/12/23 07:01:11;;;;;;;56.40;30.23;;;;;;;;;;5054514;28;20040;-79
2021/12/23 07:04:06;;;;;;;48.30;26.92;;;;;;;;;;5072676;28;20033;-77
2021/12/23 07:06:26;;;;;;;48.28;26.30;;;;;;;;;;5071478;28;20138;-77
2021/12/23 07:08:54;;;;;;;43.72;25.50;;;;;;;;;;5071964;28;20860;-78
2021/12/23 07:11:20;;;;;;;59.20;30.88;;;;;;;;;;5072022;28;20089;-78
2021/12/23 07:13:46;;;;;;;55.45;30.20;;;;;;;;;;5072476;28;20029;-77
2021/12/23 07:16:12;;;;;;;53.10;28.98;;;;;;;;;;5069905;28;20093;-77
2021/12/23 07:18:38;;;;;;;51.72;25.75;;;;;;;;;;5072737;28;20071;-77
2021/12/23 07:21:04;;;;;;;42.03;23.65;;;;;;;;;;5071807;28;20064;-77
2021/12/23 07:23:30;;;;;;;40.85;23.15;;;;;;;;;;5066647;28;20062;-78
2021/12/23 07:25:56;;;;;;;53.80;28.33;;;;;;;;;;5062624;28;20032;-77
2021/12/23 07:28:22;;;;;;;55.28;30.08;;;;;;;;;;5071371;28;20372;-79
2021/12/23 07:30:48;;;;;;;56.80;30.77;;;;;;;;;;5069901;28;20439;-78
2021/12/23 07:33:14;;;;;;;54.00;30.20;;;;;;;;;;5068487;28;20039;-77
2021/12/23 07:35:41;;;;;;;53.95;29.05;;;;;;;;;;5070510;28;20036;-76
2021/12/23 07:38:07;;;;;;;52.63;26.20;;;;;;;;;;5065044;28;20060;-78
2021/12/23 07:40:33;;;;;;;49.88;26.95;;;;;;;;;;5069742;28;20073;-77
2021/12/23 07:43:09;;;;;;;46.22;27.73;;;;;;;;;;5063027;28;20486;-77
2021/12/23 07:45:36;;;;;;;50.63;26.83;;;;;;;;;;5053204;28;20032;-77
2021/12/23 07:48:03;;;;;;;45.83;25.02;;;;;;;;;;5064885;28;20061;-79
2021/12/23 07:50:29;;;;;;;48.95;28.02;;;;;;;;;;5063362;28;20643;-78
2021/12/23 07:52:55;;;;;;;44.33;24.20;;;;;;;;;;5066265;28;20036;-79
2021/12/23 07:55:21;;;;;;;40.72;22.40;;;;;;;;;;5068018;28;20032;-79
2021/12/23 07:57:48;;;;;;;38.30;22.20;;;;;;;;;;5068005;28;20059;-78
2021/12/23 08:00:17;;;;;;;38.55;21.88;;;;;;;;;;5066896;28;20036;-78
2021/12/23 08:02:43;;;;;;;53.63;26.05;;;;;;;;;;5068384;28;20028;-78
2021/12/23 08:05:10;;;;;;;57.38;28.15;;;;;;;;;;5076308;28;20040;-78
2021/12/23 08:07:36;;;;;;;57.20;30.50;;;;;;;;;;5069433;28;20075;-78
2021/12/23 08:10:03;;;;;;;54.80;27.05;;;;;;;;;;5061657;28;20040;-78
2021/12/23 08:12:29;;;;;;;63.38;30.77;;;;;;;;;;5070778;28;20056;-78
2021/12/23 08:14:55;;;;;;;50.20;25.98;;;;;;;;;;5069585;28;20036;-78
2021/12/23 08:17:21;;;;;;;49.63;25.08;;;;;;;;;;5067807;28;20094;-75
2021/12/23 08:19:47;;;;;;;51.78;27.70;;;;;;;;;;5070941;28;20520;-76
2021/12/23 08:22:13;;;;;;;53.90;26.80;;;;;;;;;;5071556;28;20093;-75
2021/12/23 08:24:39;;;;;;;51.92;25.85;;;;;;;;;;5070972;28;20036;-76
2021/12/23 08:27:07;;;;;;;53.10;25.48;;;;;;;;;;5067784;28;20104;-76
2021/12/23 08:29:33;;;;;;;46.60;22.92;;;;;;;;;;5071441;28;20037;-76
2021/12/23 08:31:59;;;;;;;51.90;24.60;;;;;;;;;;5070519;28;20032;-75
2021/12/23 08:34:25;;;;;;;47.80;22.42;;;;;;;;;;5071325;28;20663;-76
2021/12/23 08:36:52;;;;;;;49.22;24.30;;;;;;;;;;5070016;28;20020;-76
2021/12/23 08:39:18;;;;;;;63.33;30.98;;;;;;;;;;5061619;28;20065;-76
2021/12/23 08:41:45;;;;;;;53.20;27.05;;;;;;;;;;5068179;28;20037;-76
2021/12/23 08:44:11;;;;;;;43.10;23.63;;;;;;;;;;5068712;28;20841;-76
2021/12/23 08:46:37;;;;;;;39.60;22.08;;;;;;;;;;5057204;28;20116;-76
2021/12/23 08:49:04;;;;;;;39.83;22.88;;;;;;;;;;5065622;28;20498;-76
2021/12/23 08:51:32;;;;;;;39.13;22.30;;;;;;;;;;5059336;28;20028;-76
2021/12/23 08:53:58;;;;;;;42.50;23.80;;;;;;;;;;5053001;28;20028;-76
2021/12/23 08:56:24;;;;;;;42.13;22.00;;;;;;;;;;5070284;28;20039;-76
2021/12/23 08:58:50;;;;;;;37.78;22.83;;;;;;;;;;5064196;28;20037;-75
2021/12/23 09:01:16;;;;;;;51.65;26.60;;;;;;;;;;5070458;28;20040;-76
2021/12/23 09:03:42;;;;;;;69.03;33.67;;;;;;;;;;5070420;28;20041;-76
2021/12/23 09:06:08;;;;;;;64.53;33.40;;;;;;;;;;5069405;28;20028;-76
2021/12/23 09:08:34;;;;;;;65.40;32.45;;;;;;;;;;5053515;28;20420;-75
2021/12/23 09:11:01;;;;;;;67.90;36.33;;;;;;;;;;5050032;28;20502;-76
2021/12/23 09:13:28;;;;;;;62.28;34.25;;;;;;;;;;5058841;28;20044;-76
2021/12/23 09:15:54;;;;;;;69.65;31.58;;;;;;;;;;5054901;28;20044;-76
2021/12/23 09:18:20;;;;;;;66.90;34.70;;;;;;;;;;5064351;28;20068;-76
2021/12/23 09:20:47;;;;;;;68.13;34.45;;;;;;;;;;5057957;28;20037;-76
2021/12/23 09:23:13;;;;;;;71.53;36.15;;;;;;;;;;5054910;28;20464;-75
2021/12/23 09:25:39;;;;;;;59.28;31.23;;;;;;;;;;5069811;28;20039;-75
2021/12/23 09:33:29;;;;;;;55.22;27.85;;;;;;;;;;5070362;28;20108;-76
2021/12/23 09:35:56;;;;;;;49.35;27.05;;;;;;;;;;5080784;28;20076;-76
2021/12/23 09:38:27;;;;;;;64.75;35.70;;;;;;;;;;5059947;28;20043;-75
2021/12/23 09:40:54;;;;;;;65.77;35.20;;;;;;;;;;5064389;28;20052;-76
2021/12/23 09:43:22;;;;;;;69.28;38.40;;;;;;;;;;5066248;28;20084;-76
2021/12/23 09:45:48;;;;;;;75.10;42.90;;;;;;;;;;5068465;28;20043;-75
2021/12/23 09:48:15;;;;;;;66.70;37.05;;;;;;;;;;5069305;28;20028;-76
2021/12/23 09:50:41;;;;;;;60.25;33.05;;;;;;;;;;5069984;28;20085;-75
2021/12/23 09:53:07;;;;;;;50.25;29.30;;;;;;;;;;5057761;28;20037;-76
2021/12/23 09:55:35;;;;;;;50.83;28.13;;;;;;;;;;5050168;28;20040;-76
2021/12/23 09:58:01;;;;;;;44.25;25.95;;;;;;;;;;5058397;28;20068;-76
2021/12/23 10:00:29;;;;;;;48.20;27.85;;;;;;;;;;5069509;28;20127;-76
2021/12/23 10:02:56;;;;;;;56.85;34.85;;;;;;;;;;5065775;28;20064;-76
2021/12/23 10:05:24;;;;;;;65.55;36.75;;;;;;;;;;5058859;28;20441;-76
2021/12/23 10:07:50;;;;;;;70.93;45.95;;;;;;;;;;5049065;28;20029;-75
2021/12/23 10:10:25;;;;;;;62.33;38.60;;;;;;;;;;5056823;28;20472;-76
2021/12/23 10:32:38;;;;;;;112.60;67.43;;;;;;;;;;5031287;28;20033;-76
2021/12/23 10:37:53;;;;;;;61.45;34.80;;;;;;;;;;5053602;28;20047;-79
2021/12/23 10:40:20;;;;;;;52.03;29.63;;;;;;;;;;5063370;28;20033;-78
2021/12/23 10:42:50;;;;;;;56.28;27.75;;;;;;;;;;5053423;28;20040;-78
2021/12/23 10:45:16;;;;;;;45.08;26.08;;;;;;;;;;5061828;28;20030;-78
2021/12/23 10:47:55;;;;;;;36.08;19.92;;;;;;;;;;5067153;28;20033;-78
2021/12/23 10:50:22;;;;;;;42.05;21.27;;;;;;;;;;5067627;28;20386;-78
2021/12/23 10:52:50;;;;;;;34.83;18.80;;;;;;;;;;5073083;28;20040;-79
2021/12/23 10:58:03;;;;;;;31.45;18.63;;;;;;;;;;5058376;28;20032;-78
2021/12/23 11:00:34;;;;;;;32.75;17.52;;;;;;;;;;5073264;28;20392;-79
2021/12/23 11:03:03;;;;;;;28.50;17.05;;;;;;;;;;5052830;28;20043;-76
2021/12/23 11:05:34;;;;;;;24.67;14.35;;;;;;;;;;5061034;28;20537;-76
2021/12/23 11:38:12;;;;;;;20.80;8.25;;;;;;;;;;5059709;28;20087;-76
2021/12/23 11:45:47;;;;;;;19.98;12.32;;;;;;;;;;5063986;28;20078;-77
2021/12/23 11:48:14;;;;;;;19.38;12.02;;;;;;;;;;5071032;28;20032;-76
2021/12/23 11:50:55;;;;;;;26.67;16.20;;;;;;;;;;5082400;28;20030;-76
2021/12/23 11:53:22;;;;;;;28.02;16.65;;;;;;;;;;5083547;28;20519;-76
2021/12/23 11:55:49;;;;;;;22.73;13.95;;;;;;;;;;5064819;28;20106;-77
2021/12/23 11:58:15;;;;;;;21.65;11.98;;;;;;;;;;5068395;28;20589;-76
2021/12/23 12:00:42;;;;;;;23.63;15.50;;;;;;;;;;5066377;28;20347;-76
2021/12/23 12:03:09;;;;;;;29.30;16.85;;;;;;;;;;5058514;28;20064;-76
2021/12/23 12:05:35;;;;;;;24.77;13.38;;;;;;;;;;5065591;28;20029;-76
2021/12/23 12:08:08;;;;;;;25.08;11.77;;;;;;;;;;5066056;28;20062;-76
2021/12/23 12:10:35;;;;;;;40.20;26.90;;;;;;;;;;5059077;28;20105;-76
2021/12/23 12:13:04;;;;;;;35.00;21.50;;;;;;;;;;5070918;28;20778;-77
2021/12/23 12:15:36;;;;;;;54.85;35.55;;;;;;;;;;5061448;28;20113;-76
2021/12/23 12:18:03;;;;;;;38.78;24.25;;;;;;;;;;5070730;28;20032;-76
2021/12/23 12:20:36;;;;;;;24.42;13.25;;;;;;;;;;5069345;28;20047;-76
2021/12/23 12:23:02;;;;;;;17.63;9.35;;;;;;;;;;5071412;28;20037;-77
2021/12/23 12:25:28;;;;;;;17.88;7.93;;;;;;;;;;5070040;28;20031;-76
2021/12/23 12:27:57;;;;;;;20.55;8.48;;;;;;;;;;5063485;28;20040;-76
2021/12/23 12:30:46;;;;;;;19.67;6.60;;;;;;;;;;5069594;28;20028;-76
2021/12/23 12:33:15;;;;;;;31.48;16.33;;;;;;;;;;5053137;28;20399;-76
2021/12/23 12:35:41;;;;;;;28.17;15.50;;;;;;;;;;5053122;28;20159;-77
2021/12/23 12:38:18;;;;;;;24.52;12.77;;;;;;;;;;5070271;28;20115;-76
2021/12/23 12:40:57;;;;;;;25.55;13.75;;;;;;;;;;5071266;28;20060;-76
2021/12/23 12:43:56;;;;;;;23.40;13.00;;;;;;;;;;5072779;28;20046;-77
2021/12/23 12:46:30;;;;;;;22.20;11.32;;;;;;;;;;5054112;28;20037;-77
2021/12/23 12:49:00;;;;;;;14.68;9.18;;;;;;;;;;5067876;28;20112;-76
2021/12/23 12:51:32;;;;;;;13.73;6.72;;;;;;;;;;5077296;28;20024;-76
2021/12/23 12:54:04;;;;;;;16.55;7.90;;;;;;;;;;5070551;28;20044;-77
2021/12/23 12:56:31;;;;;;;24.23;10.25;;;;;;;;;;5071065;28;20072;-76
2021/12/23 12:58:57;;;;;;;17.75;10.02;;;;;;;;;;5072774;28;20036;-77
2021/12/23 13:01:32;;;;;;;23.48;9.13;;;;;;;;;;5083818;28;20040;-77
2021/12/23 13:03:59;;;;;;;22.50;8.77;;;;;;;;;;5065554;28;20644;-77
2021/12/23 13:06:38;;;;;;;16.98;9.60;;;;;;;;;;5070114;28;20510;-77
2021/12/23 13:09:06;;;;;;;31.17;12.88;;;;;;;;;;5068201;28;20442;-77
2021/12/23 13:11:32;;;;;;;30.05;13.48;;;;;;;;;;5070032;28;20060;-76
2021/12/23 13:14:01;;;;;;;43.42;18.42;;;;;;;;;;5069360;28;20044;-77
2021/12/23 13:16:28;;;;;;;27.92;12.60;;;;;;;;;;5058745;28;20112;-77
2021/12/23 13:19:13;;;;;;;27.45;11.15;;;;;;;;;;5065387;28;20068;-77
2021/12/23 13:21:43;;;;;;;18.08;7.68;;;;;;;;;;5065290;28;20029;-77
2021/12/23 13:24:12;;;;;;;28.67;7.93;;;;;;;;;;5070321;28;20036;-77
2021/12/23 13:26:39;;;;;;;21.65;7.65;;;;;;;;;;5064604;28;20028;-76
2021/12/23 13:29:07;;;;;;;19.50;9.63;;;;;;;;;;5063534;28;20372;-77
2021/12/23 13:31:34;;;;;;;20.02;9.73;;;;;;;;;;5069727;28;20048;-76
2021/12/23 13:34:00;;;;;;;70.97;27.90;;;;;;;;;;5063636;28;20136;-77
2021/12/23 13:36:31;;;;;;;60.63;24.52;;;;;;;;;;5055023;28;20438;-77
2021/12/23 13:39:05;;;;;;;34.85;17.10;;;;;;;;;;5069257;28;20033;-76
2021/12/23 13:41:32;;;;;;;32.38;15.07;;;;;;;;;;5069983;28;20038;-77
2021/12/23 13:44:00;;;;;;;33.55;13.18;;;;;;;;;;5069184;28;20047;-77
2021/12/23 13:46:28;;;;;;;20.45;9.63;;;;;;;;;;5070103;28;20032;-76
2021/12/23 13:49:02;;;;;;;12.75;7.00;;;;;;;;;;5050078;28;20043;-77
2021/12/23 13:51:30;;;;;;;12.27;6.50;;;;;;;;;;5066811;28;20020;-77
2021/12/23 13:54:04;;;;;;;13.50;6.60;;;;;;;;;;5069716;28;20111;-77
2021/12/23 13:56:31;;;;;;;15.68;6.78;;;;;;;;;;5069888;28;20036;-76
2021/12/23 13:59:07;;;;;;;9.90;4.75;;;;;;;;;;5062851;28;20079;-77
2021/12/23 14:01:33;;;;;;;11.00;5.07;;;;;;;;;;5063232;28;20036;-76
2021/12/23 14:03:59;;;;;;;15.15;7.47;;;;;;;;;;5061185;28;20047;-77
2021/12/23 14:06:25;;;;;;;17.85;7.50;;;;;;;;;;5056781;28;20108;-76
2021/12/23 14:08:51;;;;;;;10.65;5.75;;;;;;;;;;5053934;28;20033;-76
2021/12/23 14:11:17;;;;;;;15.65;7.78;;;;;;;;;;5063440;28;20440;-76
2021/12/23 14:13:43;;;;;;;13.73;7.18;;;;;;;;;;5062242;28;20033;-77
2021/12/23 14:16:09;;;;;;;15.30;8.18;;;;;;;;;;5081486;28;20855;-76
2021/12/23 14:23:31;;;;;;;34.47;15.45;;;;;;;;;;5069772;28;20043;-76
2021/12/23 14:26:02;;;;;;;36.05;17.48;;;;;;;;;;5071089;28;20028;-76
2021/12/23 14:28:34;;;;;;;23.13;11.57;;;;;;;;;;5063514;28;20017;-77
2021/12/23 14:31:00;;;;;;;;;;;;;;;;;;5057695;28;20035;-76
2021/12/23 14:33:28;;;;;;;14.55;6.82;;;;;;;;;;5067230;28;19912;-76
2021/12/23 14:36:02;;;;;;;11.93;5.63;;;;;;;;;;5065044;28;20175;-76
2021/12/23 14:38:30;;;;;;;15.23;6.75;;;;;;;;;;5051984;28;20033;-77
2021/12/23 14:41:04;;;;;;;45.72;17.58;;;;;;;;;;5051051;28;20040;-76
2021/12/23 14:43:54;;;;;;;28.77;12.02;;;;;;;;;;5061456;28;20037;-76
2021/12/23 14:46:24;;;;;;;18.73;9.70;;;;;;;;;;5063473;28;20036;-77
2021/12/23 14:49:09;;;;;;;15.48;7.35;;;;;;;;;;5063190;28;20469;-77
2021/12/23 14:51:36;;;;;;;11.43;7.40;;;;;;;;;;5063875;28;20129;-77
2021/12/23 14:54:10;;;;;;;14.63;7.55;;;;;;;;;;5058332;28;20024;-79
2021/12/23 14:56:37;;;;;;;11.35;6.97;;;;;;;;;;5078302;28;20047;-78
2021/12/23 14:59:05;;;;;;;13.20;6.63;;;;;;;;;;5056988;28;20048;-79
2021/12/23 15:01:31;;;;;;;17.83;7.88;;;;;;;;;;5064476;28;20115;-78
2021/12/23 15:04:08;;;;;;;60.85;23.05;;;;;;;;;;5055144;28;20542;-79
2021/12/23 15:06:35;;;;;;;42.45;15.82;;;;;;;;;;5068234;28;20043;-78
2021/12/23 15:09:01;;;;;;;22.10;10.25;;;;;;;;;;5071126;28;20031;-77
2021/12/23 15:11:28;;;;;;;22.50;11.05;;;;;;;;;;5077750;28;20071;-78
2021/12/23 15:13:54;;;;;;;21.23;12.60;;;;;;;;;;5060052;28;20068;-78
2021/12/23 15:16:22;;;;;;;23.55;11.75;;;;;;;;;;5063730;28;20028;-78
2021/12/23 15:21:31;;;;;;;23.00;12.75;;;;;;;;;;5082302;28;20036;-78
2021/12/23 15:23:58;;;;;;;23.83;13.55;;;;;;;;;;5061268;28;20546;-78
2021/12/23 15:26:28;;;;;;;25.35;13.18;;;;;;;;;;5075054;28;20056;-78
2021/12/23 15:29:04;;;;;;;24.05;14.55;;;;;;;;;;5070242;28;20414;-78
2021/12/23 15:31:30;;;;;;;31.70;15.15;;;;;;;;;;5075482;28;20082;-77
2021/12/23 15:33:56;;;;;;;29.30;16.38;;;;;;;;;;5073698;28;20045;-78
2021/12/23 15:36:22;;;;;;;39.58;20.83;;;;;;;;;;5063942;28;20039;-78
2021/12/23 15:38:48;;;;;;;38.72;19.02;;;;;;;;;;5081508;28;20436;-78
2021/12/23 15:41:14;;;;;;;26.50;13.38;;;;;;;;;;5075825;28;20032;-78